Time;durP1;ratioP1;P1;durP2;ratioP2;P2;SDS_P1;SDS_P2;PMS_P1;PMS_P2;Temp;Humidity;BMP_temperature;BMP_pressure;BME280_temperature;BME280_humidity;BME280_pressure;Samples;Min_cycle;Max_cycle;Signal;HPM_P1;HPM_P2
2021/10/25 00:00:53;;;;;;;;;48.50;40.75;;;;;9.71;65.38;101869.84;5078628;28;47410;-75
2021/10/25 00:03:18;;;;;;;;;48.50;41.25;;;;;9.71;65.38;101869.84;5068501;27;45207;-75
2021/10/25 00:05:44;;;;;;;;;48.00;36.75;;;;;9.71;65.47;101875.97;5079721;27;45337;-75
2021/10/25 00:08:10;;;;;;;;;44.25;38.75;;;;;9.69;65.17;101877.75;5077117;27;45191;-76
2021/10/25 00:10:36;;;;;;;;;49.25;41.25;;;;;9.65;65.55;101869.06;5075696;27;45518;-76
2021/10/25 00:13:01;;;;;;;;;47.50;38.25;;;;;9.67;65.57;101874.28;5072438;28;45377;-76
2021/10/25 00:15:27;;;;;;;;;50.25;41.50;;;;;9.66;65.33;101878.66;5072898;28;45416;-76
2021/10/25 00:17:52;;;;;;;;;48.25;38.75;;;;;9.63;65.52;101870.81;5065948;27;47017;-76
2021/10/25 00:20:18;;;;;;;;;48.00;40.50;;;;;9.64;65.43;101869.06;5078285;28;45465;-77
2021/10/25 00:22:44;;;;;;;;;53.00;41.25;;;;;9.62;65.64;101865.56;5072394;28;45836;-77
2021/10/25 00:25:10;;;;;;;;;47.75;39.00;;;;;9.61;65.61;101871.69;5094918;27;45473;-77
2021/10/25 00:27:35;;;;;;;;;47.25;39.75;;;;;9.60;65.83;101872.59;5077686;27;45472;-77
2021/10/25 00:30:01;;;;;;;;;45.75;37.25;;;;;9.61;65.76;101862.06;5079091;28;45346;-77
2021/10/25 00:32:27;;;;;;;;;48.25;38.25;;;;;9.60;65.64;101856.84;5077483;27;45246;-78
2021/10/25 00:34:52;;;;;;;;;46.75;39.50;;;;;9.63;66.02;101859.44;5080142;28;45342;-77
2021/10/25 00:37:17;;;;;;;;;47.25;37.25;;;;;9.61;65.80;101854.19;5077538;27;45380;-77
2021/10/25 00:39:43;;;;;;;;;47.75;38.00;;;;;9.62;66.36;101848.06;5076804;28;46353;-76
2021/10/25 00:42:08;;;;;;;;;48.00;38.00;;;;;9.62;65.59;101847.19;5074007;28;45229;-76
2021/10/25 00:44:34;;;;;;;;;45.25;37.00;;;;;9.61;65.76;101854.19;5066376;28;47271;-76
2021/10/25 00:47:00;;;;;;;;;45.00;36.00;;;;;9.65;66.13;101861.19;5076323;28;45567;-76
2021/10/25 00:49:25;;;;;;;;;46.50;36.50;;;;;9.63;65.95;101846.31;5078894;28;46565;-76
2021/10/25 00:51:51;;;;;;;;;42.25;35.00;;;;;9.61;66.08;101841.06;5078778;28;45394;-77
2021/10/25 00:54:17;;;;;;;;;49.75;39.00;;;;;9.61;66.01;101846.31;5068906;28;45263;-77
2021/10/25 00:56:45;;;;;;;;;48.25;38.25;;;;;9.61;65.83;101843.69;5068004;27;45650;-77
2021/10/25 00:59:11;;;;;;;;;48.00;39.50;;;;;9.63;66.09;101847.16;5069491;28;46228;-77
2021/10/25 01:01:37;;;;;;;;;43.50;37.00;;;;;9.59;65.94;101836.72;5078401;28;45794;-81
2021/10/25 01:04:03;;;;;;;;;49.00;38.75;;;;;9.61;66.23;101846.31;5078275;28;45253;-76
2021/10/25 01:06:29;;;;;;;;;47.00;38.00;;;;;9.63;65.95;101851.56;5073329;28;45504;-76
2021/10/25 01:08:56;;;;;;;;;42.25;35.75;;;;;9.60;66.09;101849.84;5071795;28;45476;-76
2021/10/25 01:11:23;;;;;;;;;46.25;38.50;;;;;9.63;66.18;101847.16;5077637;27;45517;-77
2021/10/25 01:13:48;;;;;;;;;41.00;35.25;;;;;9.60;66.19;101841.97;5074329;28;46131;-77
2021/10/25 01:16:14;;;;;;;;;49.00;38.00;;;;;9.60;65.94;101841.97;5076708;28;46060;-78
2021/10/25 01:18:39;;;;;;;;;50.75;39.50;;;;;9.64;66.40;101848.94;5076147;28;47296;-78
2021/10/25 01:21:05;;;;;;;;;41.50;36.50;;;;;9.63;66.02;101848.94;5078181;28;45648;-77
2021/10/25 01:23:31;;;;;;;;;45.25;36.75;;;;;9.65;66.56;101849.81;5079510;28;45255;-77
2021/10/25 01:25:57;;;;;;;;;48.25;40.25;;;;;9.71;66.25;101851.47;5075690;27;45386;-77
2021/10/25 01:28:23;;;;;;;;;43.50;37.75;;;;;9.70;66.81;101841.88;5066984;27;46091;-77
2021/10/25 01:30:48;;;;;;;;;46.00;36.50;;;;;9.73;66.77;101841.84;5075654;28;45790;-77
2021/10/25 01:33:17;;;;;;;;;46.25;39.25;;;;;9.78;66.78;101845.25;5080283;27;45220;-77
2021/10/25 01:35:43;;;;;;;;;43.50;36.75;;;;;9.82;67.47;101839.09;5082877;28;45305;-77
2021/10/25 01:38:09;;;;;;;;;48.25;40.00;;;;;9.87;67.53;101845.16;5080945;27;45455;-77
2021/10/25 01:40:35;;;;;;;;;40.50;36.25;;;;;9.92;66.76;101841.63;5076654;28;46049;-77
2021/10/25 01:43:01;;;;;;;;;46.00;37.00;;;;;9.91;66.81;101840.72;5072831;27;45549;-77
2021/10/25 01:45:27;;;;;;;;;45.25;35.75;;;;;9.95;67.13;101836.31;5074058;27;45579;-77
2021/10/25 01:47:53;;;;;;;;;44.75;34.25;;;;;10.00;67.04;101843.25;5080106;28;45646;-77
2021/10/25 01:50:18;;;;;;;;;41.25;35.25;;;;;10.06;66.99;101842.31;5072367;28;45510;-77
2021/10/25 01:52:44;;;;;;;;;41.75;35.50;;;;;10.08;67.06;101837.00;5076545;27;45724;-76
2021/10/25 01:55:10;;;;;;;;;40.75;35.25;;;;;10.10;67.24;101836.09;5073781;28;46017;-76
2021/10/25 01:57:35;;;;;;;;;43.25;35.75;;;;;10.15;67.09;101833.41;5073625;28;45623;-75
2021/10/25 02:00:00;;;;;;;;;41.25;35.00;;;;;10.20;67.24;101833.34;5075548;28;45262;-76
2021/10/25 02:02:26;;;;;;;;;42.75;34.75;;;;;10.23;67.01;101831.56;5080618;27;45435;-76
2021/10/25 02:04:52;;;;;;;;;39.50;33.75;;;;;10.28;67.65;101844.63;5081979;28;45452;-76
2021/10/25 02:07:17;;;;;;;;;38.75;33.00;;;;;10.29;67.21;101835.88;5076603;27;45465;-76
2021/10/25 02:09:42;;;;;;;;;39.00;34.50;;;;;10.31;67.04;101834.09;5082091;28;45411;-76
2021/10/25 02:12:08;;;;;;;;;36.25;32.25;;;;;10.34;66.84;101826.16;5081362;27;45446;-76
2021/10/25 02:14:34;;;;;;;;;41.25;35.00;;;;;10.38;66.73;101824.34;5067091;28;46713;-76
2021/10/25 02:17:00;;;;;;;;;36.75;33.75;;;;;10.40;66.75;101825.19;5079077;27;46320;-76
2021/10/25 02:19:25;;;;;;;;;38.50;31.75;;;;;10.42;66.45;101817.31;5069675;28;45358;-76
2021/10/25 02:21:50;;;;;;;;;35.25;31.50;;;;;10.43;66.73;101813.75;5082063;27;45523;-76
2021/10/25 02:24:16;;;;;;;;;35.50;31.00;;;;;10.45;66.64;101822.50;5082185;27;45428;-76
2021/10/25 02:26:41;;;;;;;;;35.00;31.25;;;;;10.47;66.74;101807.56;5076558;27;45442;-76
2021/10/25 02:29:07;;;;;;;;;38.00;31.50;;;;;10.50;66.59;101810.16;5068824;28;45234;-76
2021/10/25 02:31:32;;;;;;;;;37.25;33.00;;;;;10.54;66.28;101817.13;5066337;28;45207;-76
2021/10/25 02:33:58;;;;;;;;;38.25;33.25;;;;;10.53;66.30;101807.50;5080909;28;45463;-76
2021/10/25 02:36:23;;;;;;;;;31.00;30.50;;;;;10.55;66.34;101796.97;5079150;27;45462;-75
2021/10/25 02:38:49;;;;;;;;;37.50;32.50;;;;;10.59;66.57;101809.19;5077514;27;47051;-76
2021/10/25 02:41:14;;;;;;;;;36.75;31.00;;;;;10.60;66.24;101797.75;5081026;28;45310;-76
2021/10/25 02:43:40;;;;;;;;;33.50;29.75;;;;;10.59;66.38;101796.03;5092824;27;46392;-76
2021/10/25 02:46:06;;;;;;;;;36.50;30.25;;;;;10.62;65.89;101800.38;5066971;28;48339;-76
2021/10/25 02:48:32;;;;;;;;;29.25;29.25;;;;;10.63;66.06;101802.09;5100333;27;46068;-76
2021/10/25 02:50:57;;;;;;;;;36.00;32.00;;;;;10.65;66.33;101797.69;5081697;27;45432;-76
2021/10/25 02:53:23;;;;;;;;;32.75;28.75;;;;;10.65;66.00;101793.31;5080393;27;45398;-75
2021/10/25 02:55:49;;;;;;;;;33.25;30.00;;;;;10.67;66.15;101795.91;5068774;27;46665;-75
2021/10/25 02:58:15;;;;;;;;;33.25;31.00;;;;;10.69;65.76;101791.50;5069378;27;45432;-75
2021/10/25 03:00:41;;;;;;;;;41.00;34.00;;;;;10.69;65.73;101779.19;5063990;28;45477;-76
2021/10/25 03:03:08;;;;;;;;;34.75;31.25;;;;;10.72;65.98;101786.19;5080424;27;45351;-76
2021/10/25 03:05:33;;;;;;;;;36.00;30.75;;;;;10.73;65.76;101781.78;5075380;27;45527;-76
2021/10/25 03:07:59;;;;;;;;;33.50;30.50;;;;;10.76;65.83;101787.00;5078971;28;46358;-76
2021/10/25 03:10:24;;;;;;;;;32.75;30.75;;;;;10.78;65.64;101785.22;5077714;27;45511;-76
2021/10/25 03:12:50;;;;;;;;;32.75;31.25;;;;;10.79;65.51;101790.44;5078257;28;45516;-76
2021/10/25 03:15:17;;;;;;;;;37.75;32.50;;;;;10.78;65.55;101796.59;5068539;28;45482;-76
2021/10/25 03:17:44;;;;;;;;;34.75;28.00;;;;;10.80;65.60;101789.56;5079845;28;45319;-76
2021/10/25 03:20:12;;;;;;;;;38.75;33.00;;;;;10.82;65.50;101791.28;5079812;27;45329;-76
2021/10/25 03:22:37;;;;;;;;;35.25;31.00;;;;;10.79;65.47;101782.53;5081131;27;45308;-76
2021/10/25 03:25:04;;;;;;;;;36.75;32.00;;;;;10.82;65.47;101781.63;5079048;27;45546;-76
2021/10/25 03:27:29;;;;;;;;;34.50;30.75;;;;;10.83;65.48;101787.75;5078870;28;45205;-76
2021/10/25 03:29:55;;;;;;;;;34.75;29.75;;;;;10.83;65.61;101791.25;5080272;28;45221;-76
2021/10/25 03:32:21;;;;;;;;;36.25;33.00;;;;;10.87;65.36;101792.94;5080668;28;45496;-76
2021/10/25 03:34:47;;;;;;;;;35.00;31.00;;;;;10.89;65.41;101795.56;5079285;27;46368;-77
2021/10/25 03:37:13;;;;;;;;;31.50;29.50;;;;;10.89;65.34;101795.56;5076268;27;45508;-77
2021/10/25 03:39:40;;;;;;;;;31.00;28.25;;;;;10.88;64.99;101794.69;5080587;28;45408;-77
2021/10/25 03:42:13;;;;;;;;;34.25;31.75;;;;;10.89;64.98;101788.50;5066993;28;45443;-77
2021/10/25 03:44:48;;;;;;;;;33.25;30.75;;;;;10.91;65.36;101797.25;5078535;28;45533;-77
2021/10/25 03:50:19;;;;;;;;;32.25;30.50;;;;;10.93;65.53;101793.72;5044906;28;45629;-77
2021/10/25 03:52:53;;;;;;;;;37.25;32.25;;;;;10.93;65.34;101784.09;5078767;28;45348;-77
2021/10/25 03:58:07;;;;;;;;;35.75;33.00;;;;;10.95;65.44;101789.31;5079282;28;45313;-77
2021/10/25 04:27:41;;;;;;;;;29.75;27.25;;;;;10.98;66.05;101792.75;5079234;28;45832;-79
2021/10/25 04:30:06;;;;;;;;;30.50;28.00;;;;;10.98;66.09;101787.50;5064074;28;46119;-79
2021/10/25 04:32:32;;;;;;;;;31.50;30.50;;;;;10.98;66.19;101781.38;5064210;28;45404;-77
2021/10/25 04:34:57;;;;;;;;;31.50;28.75;;;;;11.00;66.29;101790.97;5079807;28;45323;-77
2021/10/25 04:37:23;;;;;;;;;37.25;30.25;;;;;11.01;66.39;101787.44;5077796;27;45519;-78
2021/10/25 04:39:48;;;;;;;;;32.50;29.25;;;;;10.99;66.58;101789.22;5079913;28;45246;-78
2021/10/25 04:42:16;;;;;;;;;33.25;31.00;;;;;11.01;66.82;101795.31;5077313;27;45494;-78
2021/10/25 04:44:45;;;;;;;;;29.75;26.50;;;;;10.98;66.62;101787.50;5078731;28;45669;-76
2021/10/25 04:47:11;;;;;;;;;33.75;29.75;;;;;10.97;66.48;101791.00;5078447;28;46269;-76
2021/10/25 04:49:36;;;;;;;;;33.25;30.25;;;;;10.97;66.86;101793.66;5078701;28;45264;-76
2021/10/25 04:52:03;;;;;;;;;31.75;29.00;;;;;10.98;66.57;101792.75;5074976;27;45385;-76
2021/10/25 04:54:31;;;;;;;;;32.75;29.00;;;;;10.95;66.86;101784.91;5078461;28;46917;-77
2021/10/25 04:56:59;;;;;;;;;30.25;28.50;;;;;10.96;67.05;101780.53;5078826;27;46389;-76
2021/10/25 04:59:25;;;;;;;;;30.50;27.75;;;;;10.96;66.84;101788.44;5075608;28;45430;-74
2021/10/25 05:01:50;;;;;;;;;28.50;24.75;;;;;10.95;66.94;101787.56;5061038;28;45327;-75
2021/10/25 05:04:16;;;;;;;;;29.00;28.00;;;;;10.96;67.08;101791.94;5064794;28;45500;-76
2021/10/25 05:06:42;;;;;;;;;32.50;26.50;;;;;10.95;67.12;101797.19;5068535;28;45181;-75
2021/10/25 05:09:07;;;;;;;;;28.75;26.00;;;;;10.96;67.08;101784.03;5083204;28;45267;-76
2021/10/25 05:11:33;;;;;;;;;29.50;27.25;;;;;10.95;67.17;101779.66;5083273;27;45482;-76
2021/10/25 05:13:58;;;;;;;;;19.50;18.75;;;;;10.93;67.07;101778.81;5068607;27;45140;-76
2021/10/25 05:16:24;;;;;;;;;26.00;24.25;;;;;10.92;67.05;101777.06;5080885;27;45454;-76
2021/10/25 05:18:49;;;;;;;;;27.50;22.75;;;;;10.94;67.14;101779.69;5083153;28;45230;-76
2021/10/25 05:21:15;;;;;;;;;28.00;27.50;;;;;10.92;67.08;101779.69;5083067;27;45672;-75
2021/10/25 05:23:41;;;;;;;;;25.50;23.00;;;;;10.93;67.20;101786.72;5078423;27;46007;-77
2021/10/25 05:26:06;;;;;;;;;26.50;24.00;;;;;10.92;67.13;101784.97;5071093;27;46653;-78
2021/10/25 05:28:32;;;;;;;;;23.50;22.25;;;;;10.92;67.27;101779.69;5074405;28;45456;-75
2021/10/25 05:30:57;;;;;;;;;27.75;23.75;;;;;10.90;67.33;101774.47;5073355;27;45541;-76
2021/10/25 05:33:23;;;;;;;;;28.75;23.50;;;;;10.91;67.41;101772.72;5076264;28;46061;-75
2021/10/25 05:35:48;;;;;;;;;30.50;24.75;;;;;10.88;67.44;101763.13;5081355;28;46407;-75
2021/10/25 05:38:13;;;;;;;;;25.00;23.25;;;;;10.87;67.42;101757.88;5071893;28;46122;-76
2021/10/25 05:40:40;;;;;;;;;23.50;22.75;;;;;10.87;67.81;101756.13;5078271;27;45388;-75
2021/10/25 05:43:07;;;;;;;;;32.75;28.00;;;;;10.84;67.74;101750.91;5068487;28;45405;-75
2021/10/25 05:45:32;;;;;;;;;28.00;24.25;;;;;10.85;67.72;101759.66;5071269;28;45687;-75
2021/10/25 05:47:58;;;;;;;;;26.75;25.25;;;;;10.82;67.71;101751.81;5069677;28;45452;-75
2021/10/25 05:50:24;;;;;;;;;27.00;26.75;;;;;10.82;67.71;101755.31;5071564;28;45659;-76
2021/10/25 05:52:49;;;;;;;;;26.00;24.50;;;;;10.83;67.98;101758.81;5070289;27;45480;-76
2021/10/25 05:55:21;;;;;;;;;28.50;25.00;;;;;10.82;68.04;101760.59;5070993;28;45986;-75
2021/10/25 05:57:47;;;;;;;;;30.25;27.50;;;;;10.79;68.14;101753.63;5068601;28;45911;-75
2021/10/25 06:00:13;;;;;;;;;28.75;24.00;;;;;10.80;68.14;101755.38;5070583;28;46594;-75
2021/10/25 06:02:39;;;;;;;;;30.00;25.50;;;;;10.82;68.23;101749.19;5078860;28;45524;-74
2021/10/25 06:05:06;;;;;;;;;29.75;27.25;;;;;10.82;68.27;101754.44;5076807;27;45287;-75
2021/10/25 06:07:32;;;;;;;;;26.75;24.50;;;;;10.79;68.29;101753.63;5080186;27;46015;-76
2021/10/25 06:09:57;;;;;;;;;24.75;23.25;;;;;10.83;68.27;101753.56;5078302;28;45486;-75
2021/10/25 06:12:25;;;;;;;;;24.25;23.00;;;;;10.81;68.44;101758.88;5080681;28;45594;-75
2021/10/25 06:14:51;;;;;;;;;24.50;23.25;;;;;10.79;68.14;101750.16;5080748;27;46224;-75
2021/10/25 06:19:49;;;;;;;;;26.75;23.75;;;;;10.80;68.74;101750.09;5079898;28;45561;-75
2021/10/25 06:22:18;;;;;;;;;30.50;25.75;;;;;10.80;68.75;101752.72;5079463;27;45449;-74
2021/10/25 06:24:44;;;;;;;;;27.25;24.25;;;;;10.84;68.97;101757.94;5093984;27;45726;-73
2021/10/25 06:27:09;;;;;;;;;30.25;26.50;;;;;10.83;68.94;101761.47;5088021;27;45281;-73
2021/10/25 06:29:35;;;;;;;;;27.50;24.75;;;;;10.87;68.93;101764.00;5087832;27;45233;-73
2021/10/25 06:32:01;;;;;;;;;29.25;25.50;;;;;10.90;69.05;101763.09;5087765;27;45348;-73
2021/10/25 06:34:32;;;;;;;;;23.25;22.00;;;;;10.92;68.87;101763.91;5081780;27;45361;-73
2021/10/25 06:36:58;;;;;;;;;23.75;22.50;;;;;10.95;69.12;101763.00;5081770;27;45286;-74
2021/10/25 06:39:30;;;;;;;;;23.75;21.00;;;;;10.97;68.94;101763.84;5079710;27;45313;-74
2021/10/25 06:43:44;;;;;;;;;10.50;8.75;;;;;11.93;72.34;101745.25;5092394;27;45394;-65
2021/10/25 06:46:09;;;;;;;;;10.25;9.00;;;;;13.03;70.82;101753.16;5076546;28;45266;-66
2021/10/25 06:48:35;;;;;;;;;12.00;9.00;;;;;14.07;68.49;101750.22;5072662;28;45240;-65
2021/10/25 06:51:00;;;;;;;;;6.50;6.50;;;;;14.99;66.77;101758.72;5073080;27;45873;-65
2021/10/25 06:53:25;;;;;;;;;10.25;9.00;;;;;15.80;65.15;101755.75;5067395;28;47102;-65
2021/10/25 06:55:51;;;;;;;;;8.75;8.75;;;;;16.49;63.82;101760.16;5067532;28;45254;-66
2021/10/25 07:01:14;;;;;;;;;22.50;18.50;;;;;16.85;58.96;101779.88;4972627;28;45438;-75
2021/10/25 07:03:39;;;;;;;;;20.50;18.75;;;;;16.28;58.53;101776.00;4932531;28;45329;-75
2021/10/25 07:06:07;;;;;;;;;21.50;19.50;;;;;15.69;59.23;101771.19;4935127;28;45555;-74
2021/10/25 07:08:33;;;;;;;;;22.50;18.00;;;;;15.18;59.50;101774.81;4934561;28;45331;-74
2021/10/25 07:10:59;;;;;;;;;20.00;19.75;;;;;14.74;60.25;101781.59;4934645;28;45429;-75
2021/10/25 07:13:25;;;;;;;;;25.25;21.25;;;;;14.36;60.96;101788.09;4933981;28;45462;-74
2021/10/25 07:15:59;;;;;;;;;22.00;21.75;;;;;14.03;61.39;101790.88;4934622;28;45379;-74
2021/10/25 07:26:40;;;;;;;;;20.50;20.50;;;;;13.02;63.30;101788.38;4933997;28;45421;-74
2021/10/25 08:12:16;;;;;;;;;20.25;20.00;;;;;12.04;68.24;101836.38;4923371;28;45276;-74
2021/10/25 08:14:48;;;;;;;;;24.75;22.00;;;;;12.01;68.63;101832.03;4921052;28;45454;-74
2021/10/25 08:17:19;;;;;;;;;22.00;21.75;;;;;11.99;68.59;101818.03;4921259;28;45196;-74
2021/10/25 08:19:44;;;;;;;;;30.00;23.25;;;;;12.02;68.61;101819.72;4920220;28;45756;-74
2021/10/25 08:22:14;;;;;;;;;28.25;26.00;;;;;12.07;68.99;101824.91;4921331;28;45355;-74
2021/10/25 08:24:42;;;;;;;;;30.50;25.50;;;;;12.04;68.98;101815.28;4921000;28;46351;-74
2021/10/25 08:27:09;;;;;;;;;24.25;20.25;;;;;12.06;69.02;101815.25;4919244;28;47476;-74
2021/10/25 08:29:35;;;;;;;;;29.25;25.50;;;;;12.09;69.02;101818.69;4920291;28;45351;-74
2021/10/25 08:34:36;;;;;;;;;30.25;25.75;;;;;12.07;69.31;101817.88;4919799;28;46098;-74
2021/10/25 08:42:22;;;;;;;;;29.00;25.75;;;;;12.08;69.23;101822.22;4910438;28;45442;-74
2021/10/25 08:45:01;;;;;;;;;29.50;26.75;;;;;12.10;69.66;101823.03;4919894;28;45392;-74
2021/10/25 08:47:33;;;;;;;;;31.00;27.00;;;;;12.10;69.61;101809.03;4920803;28;45862;-74
2021/10/25 08:50:01;;;;;;;;;33.25;28.00;;;;;12.13;69.47;101820.38;4920120;28;45419;-74
2021/10/25 08:52:27;;;;;;;;;27.25;26.50;;;;;12.13;69.91;101817.75;4921715;28;45408;-74
2021/10/25 08:54:53;;;;;;;;;33.25;28.25;;;;;12.19;70.14;101818.50;4953604;28;45413;-74
2021/10/25 08:57:20;;;;;;;;;32.50;26.25;;;;;12.19;69.90;101815.88;4934021;28;45770;-74
2021/10/25 09:00:04;;;;;;;;;30.75;28.25;;;;;12.21;70.12;101819.34;4919140;28;45240;-74
2021/10/25 09:02:30;;;;;;;;;30.25;28.75;;;;;12.25;70.39;101821.00;4912636;28;45458;-74
2021/10/25 09:05:10;;;;;;;;;29.50;26.50;;;;;12.30;70.38;101813.84;4920354;28;45305;-74
2021/10/25 09:07:53;;;;;;;;;30.75;27.50;;;;;12.30;70.51;101816.50;4920530;28;45414;-73
2021/10/25 09:10:24;;;;;;;;;29.00;28.25;;;;;12.36;70.28;101804.94;4920822;28;45395;-73
2021/10/25 09:12:59;;;;;;;;;29.50;27.50;;;;;12.39;70.77;101807.50;4920359;28;45437;-73
2021/10/25 09:15:33;;;;;;;;;36.50;29.50;;;;;12.45;70.32;101803.84;4920326;28;45474;-73
2021/10/25 09:18:17;;;;;;;;;31.25;28.00;;;;;12.51;70.45;101814.25;4920482;28;45406;-73
2021/10/25 09:20:53;;;;;;;;;32.75;29.75;;;;;12.55;70.87;101805.38;4920562;28;45256;-73
2021/10/25 09:23:21;;;;;;;;;34.50;29.75;;;;;12.62;70.48;101803.44;4918729;28;45318;-73
2021/10/25 09:25:56;;;;;;;;;33.50;31.25;;;;;12.66;70.73;101796.34;4918984;28;45572;-73
2021/10/25 09:28:29;;;;;;;;;34.25;30.00;;;;;12.72;70.64;101796.16;4917072;28;45778;-73
2021/10/25 09:30:59;;;;;;;;;39.25;31.50;;;;;12.76;70.74;101792.56;4908721;28;45365;-73
2021/10/25 09:33:32;;;;;;;;;43.25;35.75;;;;;12.81;70.75;101789.81;4920156;28;45525;-73
2021/10/25 09:36:02;;;;;;;;;41.25;35.00;;;;;12.88;70.95;101788.75;4920364;28;45589;-73
2021/10/25 09:48:58;;;;;;;;;34.00;30.25;;;;;13.16;70.97;101789.78;4917609;28;45646;-74
2021/10/25 09:49:35;;;;;;;;;38.75;33.75;;;;;13.21;70.97;101787.88;4919336;28;45399;-73
2021/10/25 09:52:03;;;;;;;;;33.00;28.25;;;;;13.27;70.55;101782.44;4920371;28;45430;-73
2021/10/25 09:54:31;;;;;;;;;35.75;31.50;;;;;13.35;70.47;101789.28;4920120;28;45499;-74
2021/10/25 09:57:14;;;;;;;;;36.00;30.50;;;;;13.40;70.37;101787.38;4919989;28;46206;-73
2021/10/25 09:59:58;;;;;;;;;29.50;28.75;;;;;13.46;69.19;101787.19;4920077;28;45504;-73
2021/10/25 10:02:24;;;;;;;;;17.25;17.25;;;;;13.57;69.11;101793.97;4920017;28;45474;-73
2021/10/25 10:05:00;;;;;;;;;1.25;1.00;;;;;13.64;68.24;101790.25;4919309;28;45459;-73
2021/10/25 10:07:26;;;;;;;;;37.75;34.00;;;;;13.75;69.35;101786.44;4919400;28;47006;-73
2021/10/25 10:09:52;;;;;;;;;28.75;27.50;;;;;13.85;68.37;101787.91;4918676;28;45880;-73
2021/10/25 10:12:20;;;;;;;;;22.00;20.00;;;;;13.99;67.35;101797.16;4919955;28;45170;-73
2021/10/25 10:14:58;;;;;;;;;29.25;24.00;;;;;14.09;67.26;101795.09;4919363;28;45411;-73
2021/10/25 10:17:31;;;;;;;;;22.00;19.25;;;;;14.20;66.78;101792.13;4919509;28;45432;-73
2021/10/25 10:20:02;;;;;;;;;31.25;25.50;;;;;14.34;66.91;101803.16;4919443;28;45321;-73
2021/10/25 10:22:29;;;;;;;;;29.25;24.00;;;;;14.43;66.85;101806.38;4919929;28;45347;-73
2021/10/25 10:24:55;;;;;;;;;24.75;21.25;;;;;14.50;66.04;101797.34;4917244;28;45920;-73
2021/10/25 10:27:23;;;;;;;;;26.75;25.50;;;;;14.59;66.09;101802.31;4919637;28;45470;-73
2021/10/25 10:29:54;;;;;;;;;17.75;16.00;;;;;14.69;65.88;101799.41;4917447;28;45409;-73
2021/10/25 10:32:20;;;;;;;;;26.50;22.50;;;;;14.79;65.82;101808.72;4918439;28;45264;-73
2021/10/25 10:34:48;;;;;;;;;26.00;24.25;;;;;14.85;65.98;101800.63;4918884;28;45422;-73
2021/10/25 10:37:23;;;;;;;;;17.00;17.00;;;;;14.94;65.17;101810.03;4934286;28;46211;-73
2021/10/25 10:40:15;;;;;;;;;26.25;26.25;;;;;15.04;65.77;101810.56;4918247;28;45945;-73
2021/10/25 10:42:52;;;;;;;;;19.00;15.25;;;;;15.12;64.61;101812.97;4919411;28;45450;-73
2021/10/25 10:45:21;;;;;;;;;17.50;16.25;;;;;15.21;64.02;101816.22;4919325;28;45351;-73
2021/10/25 10:47:58;;;;;;;;;26.50;23.75;;;;;15.28;65.50;101813.25;4918413;28;46447;-73
2021/10/25 10:50:33;;;;;;;;;19.50;17.00;;;;;15.33;64.63;101814.91;4919359;28;45242;-73
2021/10/25 10:53:09;;;;;;;;;28.25;26.75;;;;;15.34;65.59;101812.19;4918987;28;45478;-74
2021/10/25 10:55:43;;;;;;;;;20.75;17.25;;;;;15.36;64.63;101810.34;4918476;28;45257;-73
2021/10/25 10:58:26;;;;;;;;;22.75;18.50;;;;;15.37;65.72;101811.22;4919087;28;45489;-74
2021/10/25 11:01:10;;;;;;;;;22.75;16.25;;;;;15.37;63.99;101817.38;4918728;28;45685;-73
2021/10/25 11:03:36;;;;;;;;;26.00;25.50;;;;;15.40;65.01;101819.06;4908704;28;45277;-73
2021/10/25 11:06:16;;;;;;;;;19.25;18.50;;;;;15.40;64.93;101808.47;4919048;28;45482;-73
2021/10/25 11:08:45;;;;;;;;;25.50;23.00;;;;;15.41;65.81;101815.47;4918611;28;46323;-73
2021/10/25 11:11:13;;;;;;;;;14.75;14.50;;;;;15.43;65.04;101807.50;4917570;28;45719;-73
2021/10/25 11:13:50;;;;;;;;;22.25;19.50;;;;;15.42;65.95;101809.25;4919404;28;45267;-74
2021/10/25 11:19:12;;;;;;;;;20.75;17.75;;;;;15.37;66.34;101816.50;4911768;28;46801;-74
2021/10/25 11:21:46;;;;;;;;;21.50;17.75;;;;;15.34;66.27;101822.78;4918585;28;45449;-74
2021/10/25 11:24:15;;;;;;;;;17.50;17.00;;;;;15.27;66.34;101827.44;4917086;28;45256;-74
2021/10/25 11:26:45;;;;;;;;;17.00;16.75;;;;;15.19;66.87;101818.88;4918374;28;45474;-74
2021/10/25 11:29:24;;;;;;;;;19.00;15.00;;;;;15.15;66.84;101835.81;4918861;28;46312;-74
2021/10/25 11:31:49;;;;;;;;;18.50;15.00;;;;;15.10;66.94;101832.47;4906730;28;45310;-74
2021/10/25 11:34:28;;;;;;;;;20.00;16.75;;;;;15.04;66.59;101815.88;4918604;28;45398;-74
2021/10/25 11:37:02;;;;;;;;;18.25;16.00;;;;;15.02;66.46;101817.69;4918265;28;45509;-74
2021/10/25 11:39:43;;;;;;;;;19.25;17.00;;;;;15.01;66.99;101816.00;4917421;28;45566;-74
2021/10/25 11:42:11;;;;;;;;;15.75;15.00;;;;;15.04;65.25;101804.41;4918359;28;45615;-74
2021/10/25 11:44:38;;;;;;;;;8.75;8.50;;;;;15.12;64.96;101804.13;4917586;28;46036;-74
2021/10/25 11:47:04;;;;;;;;;10.25;9.75;;;;;15.15;64.63;101804.03;4919975;28;45616;-74
2021/10/25 11:49:34;;;;;;;;;21.50;17.50;;;;;15.21;66.30;101806.47;4921429;28;46121;-74
2021/10/25 11:51:59;;;;;;;;;15.25;13.25;;;;;15.24;65.81;101803.72;4921103;28;45584;-74
2021/10/25 11:54:25;;;;;;;;;12.00;12.00;;;;;15.24;65.86;101798.41;4921788;28;45273;-74
2021/10/25 11:56:54;;;;;;;;;16.50;14.00;;;;;15.26;65.77;101804.50;4921047;28;45387;-74
2021/10/25 11:59:22;;;;;;;;;13.75;7.75;;;;;15.30;65.36;101803.50;4930208;28;45348;-74
2021/10/25 12:01:49;;;;;;;;;13.75;12.50;;;;;15.35;66.67;101800.69;4925087;28;45463;-74
2021/10/25 12:04:14;;;;;;;;;11.75;9.25;;;;;15.37;64.28;101793.53;4920525;28;45449;-74
2021/10/25 12:06:40;;;;;;;;;17.00;15.25;;;;;15.42;66.19;101796.03;4920920;28;45443;-74
2021/10/25 12:09:09;;;;;;;;;12.25;10.00;;;;;15.47;66.16;101795.84;4921021;28;45351;-74
2021/10/25 12:14:15;;;;;;;;;14.25;13.75;;;;;15.54;66.32;101797.34;4921432;28;45411;-74
2021/10/25 12:16:48;;;;;;;;;15.75;14.75;;;;;15.52;65.68;101799.19;4920705;28;45491;-74
2021/10/25 12:19:15;;;;;;;;;16.00;14.50;;;;;15.53;66.36;101793.00;4920002;28;45691;-74
2021/10/25 12:21:40;;;;;;;;;11.25;8.75;;;;;15.52;64.41;101792.13;4920493;28;45796;-74
2021/10/25 12:24:12;;;;;;;;;9.50;8.25;;;;;15.60;64.42;101793.63;4921372;28;45285;-74
2021/10/25 12:26:42;;;;;;;;;13.25;11.75;;;;;15.64;64.63;101782.84;4921106;28;45574;-73
2021/10/25 12:29:16;;;;;;;;;16.25;13.00;;;;;15.70;65.54;101775.56;4920337;28;45465;-74
2021/10/25 12:31:42;;;;;;;;;17.75;14.25;;;;;15.73;65.31;101776.31;4920306;28;45552;-74
2021/10/25 12:34:08;;;;;;;;;9.75;8.25;;;;;15.81;63.43;101778.66;4920935;28;45250;-74
2021/10/25 12:36:36;;;;;;;;;14.00;11.75;;;;;15.83;63.56;101763.56;4919790;28;45545;-74
2021/10/25 12:39:06;;;;;;;;;14.50;7.00;;;;;15.89;63.18;101769.56;4914913;28;45608;-74
2021/10/25 12:42:00;;;;;;;;;15.75;12.75;;;;;15.93;64.38;101756.13;4917778;28;45246;-74
2021/10/25 12:44:29;;;;;;;;;9.25;9.25;;;;;16.00;62.22;101750.59;4913391;28;45505;-74
2021/10/25 12:47:12;;;;;;;;;9.25;9.00;;;;;16.01;63.08;101752.28;4912910;28;45742;-74
2021/10/25 12:49:38;;;;;;;;;13.00;10.25;;;;;16.03;63.68;101745.13;4918768;28;46601;-74
2021/10/25 12:52:07;;;;;;;;;11.75;9.25;;;;;16.04;63.55;101745.13;4915654;28;45459;-74
2021/10/25 12:54:37;;;;;;;;;11.75;9.50;;;;;16.06;63.22;101753.00;4919394;28;45268;-74
2021/10/25 12:57:16;;;;;;;;;9.25;9.25;;;;;16.08;62.93;101751.16;4919603;28;45721;-74
2021/10/25 12:59:42;;;;;;;;;13.50;12.25;;;;;16.08;64.52;101752.03;4919039;28;45430;-74
2021/10/25 13:02:09;;;;;;;;;14.50;10.25;;;;;16.06;62.63;101750.34;4919962;28;45358;-74
2021/10/25 13:04:35;;;;;;;;;10.25;9.00;;;;;16.03;62.93;101759.25;4918079;28;45355;-73
2021/10/25 13:07:14;;;;;;;;;15.00;10.00;;;;;16.04;63.72;101760.13;4918604;28;45639;-74
2021/10/25 13:09:51;;;;;;;;;9.50;8.00;;;;;16.08;62.96;101753.81;4919333;28;46058;-74